sensor_id;sensor_type;location;lat;lon;timestamp;P1;durP1;ratioP1;P2;durP2;ratioP2
18013;SDS011;9132;47.946;10.394;2023-07-30T00:00:25;2.10;;;1.90;;
18013;SDS011;9132;47.946;10.394;2023-07-30T00:02:51;2.10;;;1.75;;
18013;SDS011;9132;47.946;10.394;2023-07-30T00:05:17;2.67;;;1.67;;
18013;SDS011;9132;47.946;10.394;2023-07-30T00:07:44;2.65;;;1.95;;
18013;SDS011;9132;47.946;10.394;2023-07-30T00:10:10;2.58;;;2.00;;
18013;SDS011;9132;47.946;10.394;2023-07-30T00:12:37;3.20;;;1.95;;
18013;SDS011;9132;47.946;10.394;2023-07-30T00:15:03;2.63;;;1.80;;
18013;SDS011;9132;47.946;10.394;2023-07-30T00:17:31;1.77;;;1.60;;
18013;SDS011;9132;47.946;10.394;2023-07-30T00:19:57;2.30;;;2.10;;
18013;SDS011;9132;47.946;10.394;2023-07-30T00:22:24;2.25;;;2.05;;
18013;SDS011;9132;47.946;10.394;2023-07-30T00:24:50;2.92;;;1.95;;
18013;SDS011;9132;47.946;10.394;2023-07-30T00:27:16;2.38;;;2.00;;
18013;SDS011;9132;47.946;10.394;2023-07-30T00:29:42;1.70;;;1.60;;
18013;SDS011;9132;47.946;10.394;2023-07-30T00:32:09;2.15;;;1.85;;
18013;SDS011;9132;47.946;10.394;2023-07-30T00:34:37;2.00;;;1.80;;
18013;SDS011;9132;47.946;10.394;2023-07-30T00:37:04;2.28;;;1.80;;
18013;SDS011;9132;47.946;10.394;2023-07-30T00:39:30;2.47;;;2.20;;
18013;SDS011;9132;47.946;10.394;2023-07-30T00:41:56;1.90;;;1.80;;
18013;SDS011;9132;47.946;10.394;2023-07-30T00:44:22;1.90;;;1.80;;
18013;SDS011;9132;47.946;10.394;2023-07-30T00:46:48;2.00;;;1.80;;
18013;SDS011;9132;47.946;10.394;2023-07-30T00:49:15;2.75;;;1.80;;
18013;SDS011;9132;47.946;10.394;2023-07-30T00:51:43;2.25;;;1.85;;
18013;SDS011;9132;47.946;10.394;2023-07-30T00:54:09;2.35;;;1.85;;
18013;SDS011;9132;47.946;10.394;2023-07-30T00:56:36;2.95;;;1.80;;
18013;SDS011;9132;47.946;10.394;2023-07-30T00:59:02;2.00;;;1.80;;
18013;SDS011;9132;47.946;10.394;2023-07-30T01:01:29;2.10;;;1.67;;
18013;SDS011;9132;47.946;10.394;2023-07-30T01:03:56;2.40;;;2.20;;
18013;SDS011;9132;47.946;10.394;2023-07-30T01:06:22;2.08;;;1.92;;
18013;SDS011;9132;47.946;10.394;2023-07-30T01:08:50;2.00;;;1.80;;
18013;SDS011;9132;47.946;10.394;2023-07-30T01:11:16;1.92;;;1.67;;
18013;SDS011;9132;47.946;10.394;2023-07-30T01:13:43;2.78;;;1.58;;
18013;SDS011;9132;47.946;10.394;2023-07-30T01:16:10;2.35;;;2.13;;
18013;SDS011;9132;47.946;10.394;2023-07-30T01:18:37;2.72;;;2.08;;
18013;SDS011;9132;47.946;10.394;2023-07-30T01:21:04;2.35;;;1.58;;
18013;SDS011;9132;47.946;10.394;2023-07-30T01:23:31;5.28;;;2.13;;
18013;SDS011;9132;47.946;10.394;2023-07-30T01:25:59;2.00;;;1.90;;
18013;SDS011;9132;47.946;10.394;2023-07-30T01:28:26;2.25;;;2.00;;
18013;SDS011;9132;47.946;10.394;2023-07-30T01:30:53;2.10;;;1.88;;
18013;SDS011;9132;47.946;10.394;2023-07-30T01:33:20;2.17;;;1.98;;
18013;SDS011;9132;47.946;10.394;2023-07-30T01:35:47;3.63;;;2.38;;
18013;SDS011;9132;47.946;10.394;2023-07-30T01:38:16;6.05;;;2.20;;
18013;SDS011;9132;47.946;10.394;2023-07-30T01:40:42;2.30;;;1.88;;
18013;SDS011;9132;47.946;10.394;2023-07-30T01:43:09;2.15;;;1.88;;
18013;SDS011;9132;47.946;10.394;2023-07-30T01:45:36;3.00;;;2.10;;
18013;SDS011;9132;47.946;10.394;2023-07-30T01:48:02;2.83;;;2.00;;
18013;SDS011;9132;47.946;10.394;2023-07-30T01:50:28;2.30;;;2.10;;
18013;SDS011;9132;47.946;10.394;2023-07-30T01:52:55;3.42;;;1.75;;
18013;SDS011;9132;47.946;10.394;2023-07-30T01:55:22;2.40;;;2.00;;
18013;SDS011;9132;47.946;10.394;2023-07-30T01:57:49;2.70;;;2.20;;
18013;SDS011;9132;47.946;10.394;2023-07-30T02:00:15;2.30;;;2.10;;
18013;SDS011;9132;47.946;10.394;2023-07-30T02:08:47;3.20;;;2.28;;
18013;SDS011;9132;47.946;10.394;2023-07-30T02:11:14;2.70;;;2.00;;
18013;SDS011;9132;47.946;10.394;2023-07-30T02:13:41;3.20;;;1.95;;
18013;SDS011;9132;47.946;10.394;2023-07-30T02:16:07;3.53;;;2.47;;
18013;SDS011;9132;47.946;10.394;2023-07-30T02:18:33;1.92;;;1.83;;
18013;SDS011;9132;47.946;10.394;2023-07-30T02:21:00;2.55;;;2.10;;
18013;SDS011;9132;47.946;10.394;2023-07-30T02:23:26;2.63;;;2.10;;
18013;SDS011;9132;47.946;10.394;2023-07-30T02:25:52;2.92;;;2.10;;
18013;SDS011;9132;47.946;10.394;2023-07-30T02:28:20;2.22;;;2.03;;
18013;SDS011;9132;47.946;10.394;2023-07-30T02:30:46;2.40;;;2.20;;
18013;SDS011;9132;47.946;10.394;2023-07-30T02:33:13;2.55;;;2.15;;
18013;SDS011;9132;47.946;10.394;2023-07-30T02:35:39;2.65;;;2.03;;
18013;SDS011;9132;47.946;10.394;2023-07-30T02:38:05;2.47;;;1.85;;
18013;SDS011;9132;47.946;10.394;2023-07-30T02:40:32;2.33;;;1.90;;
18013;SDS011;9132;47.946;10.394;2023-07-30T02:42:58;2.30;;;2.10;;
18013;SDS011;9132;47.946;10.394;2023-07-30T02:45:26;2.67;;;2.08;;
18013;SDS011;9132;47.946;10.394;2023-07-30T02:47:52;3.67;;;2.30;;
18013;SDS011;9132;47.946;10.394;2023-07-30T02:50:19;2.63;;;2.15;;
18013;SDS011;9132;47.946;10.394;2023-07-30T02:52:45;2.55;;;2.00;;
18013;SDS011;9132;47.946;10.394;2023-07-30T02:55:12;2.35;;;2.15;;
18013;SDS011;9132;47.946;10.394;2023-07-30T02:57:38;2.50;;;2.22;;
18013;SDS011;9132;47.946;10.394;2023-07-30T03:00:05;2.53;;;1.90;;
18013;SDS011;9132;47.946;10.394;2023-07-30T03:02:33;3.15;;;2.00;;
18013;SDS011;9132;47.946;10.394;2023-07-30T03:04:59;2.10;;;1.90;;
18013;SDS011;9132;47.946;10.394;2023-07-30T03:07:26;2.45;;;2.13;;
18013;SDS011;9132;47.946;10.394;2023-07-30T03:09:52;2.90;;;2.10;;
18013;SDS011;9132;47.946;10.394;2023-07-30T03:12:18;3.60;;;2.42;;
18013;SDS011;9132;47.946;10.394;2023-07-30T03:14:45;3.00;;;1.90;;
18013;SDS011;9132;47.946;10.394;2023-07-30T03:17:11;2.58;;;2.30;;
18013;SDS011;9132;47.946;10.394;2023-07-30T03:19:39;3.75;;;2.17;;
18013;SDS011;9132;47.946;10.394;2023-07-30T03:22:05;3.90;;;2.22;;
18013;SDS011;9132;47.946;10.394;2023-07-30T03:24:31;2.53;;;1.90;;
18013;SDS011;9132;47.946;10.394;2023-07-30T03:26:58;3.05;;;2.10;;
18013;SDS011;9132;47.946;10.394;2023-07-30T03:29:24;4.28;;;2.20;;
18013;SDS011;9132;47.946;10.394;2023-07-30T03:31:50;2.33;;;2.13;;
18013;SDS011;9132;47.946;10.394;2023-07-30T03:34:16;2.65;;;2.45;;
18013;SDS011;9132;47.946;10.394;2023-07-30T03:36:44;2.10;;;1.90;;
18013;SDS011;9132;47.946;10.394;2023-07-30T03:39:10;3.75;;;2.10;;
18013;SDS011;9132;47.946;10.394;2023-07-30T03:41:37;2.33;;;2.05;;
18013;SDS011;9132;47.946;10.394;2023-07-30T03:44:03;2.88;;;2.30;;
18013;SDS011;9132;47.946;10.394;2023-07-30T03:46:30;3.55;;;2.15;;
18013;SDS011;9132;47.946;10.394;2023-07-30T03:48:56;2.22;;;2.03;;
18013;SDS011;9132;47.946;10.394;2023-07-30T03:51:22;2.47;;;2.28;;
18013;SDS011;9132;47.946;10.394;2023-07-30T03:53:50;2.35;;;1.90;;
18013;SDS011;9132;47.946;10.394;2023-07-30T03:56:17;3.30;;;2.42;;
18013;SDS011;9132;47.946;10.394;2023-07-30T03:58:43;3.35;;;2.28;;
18013;SDS011;9132;47.946;10.394;2023-07-30T04:01:09;2.75;;;2.42;;
18013;SDS011;9132;47.946;10.394;2023-07-30T04:03:36;2.33;;;2.13;;
18013;SDS011;9132;47.946;10.394;2023-07-30T04:06:02;2.25;;;2.05;;
18013;SDS011;9132;47.946;10.394;2023-07-30T04:08:29;2.80;;;2.30;;
18013;SDS011;9132;47.946;10.394;2023-07-30T04:10:56;2.63;;;2.08;;
18013;SDS011;9132;47.946;10.394;2023-07-30T04:13:23;2.65;;;2.20;;
18013;SDS011;9132;47.946;10.394;2023-07-30T04:15:49;2.53;;;2.33;;
18013;SDS011;9132;47.946;10.394;2023-07-30T04:18:15;2.22;;;2.00;;
18013;SDS011;9132;47.946;10.394;2023-07-30T04:20:42;2.20;;;2.00;;
18013;SDS011;9132;47.946;10.394;2023-07-30T04:23:08;2.92;;;1.90;;
18013;SDS011;9132;47.946;10.394;2023-07-30T04:25:34;2.25;;;1.95;;
18013;SDS011;9132;47.946;10.394;2023-07-30T04:28:02;3.47;;;2.45;;
18013;SDS011;9132;47.946;10.394;2023-07-30T04:30:28;2.40;;;2.20;;
18013;SDS011;9132;47.946;10.394;2023-07-30T04:32:55;3.13;;;2.30;;
18013;SDS011;9132;47.946;10.394;2023-07-30T04:35:21;2.00;;;1.80;;
18013;SDS011;9132;47.946;10.394;2023-07-30T04:37:47;6.30;;;2.22;;
18013;SDS011;9132;47.946;10.394;2023-07-30T04:40:13;3.90;;;2.00;;
18013;SDS011;9132;47.946;10.394;2023-07-30T04:42:40;2.55;;;2.22;;
18013;SDS011;9132;47.946;10.394;2023-07-30T04:45:08;2.33;;;1.90;;
18013;SDS011;9132;47.946;10.394;2023-07-30T04:47:34;3.33;;;2.42;;
18013;SDS011;9132;47.946;10.394;2023-07-30T04:50:01;2.72;;;2.03;;
18013;SDS011;9132;47.946;10.394;2023-07-30T04:52:27;2.50;;;2.10;;
18013;SDS011;9132;47.946;10.394;2023-07-30T04:54:53;1.90;;;1.77;;
18013;SDS011;9132;47.946;10.394;2023-07-30T04:57:20;3.08;;;2.25;;
18013;SDS011;9132;47.946;10.394;2023-07-30T04:59:46;3.38;;;2.92;;
18013;SDS011;9132;47.946;10.394;2023-07-30T05:02:14;2.30;;;2.10;;
18013;SDS011;9132;47.946;10.394;2023-07-30T05:04:40;2.42;;;2.22;;
18013;SDS011;9132;47.946;10.394;2023-07-30T05:07:06;2.13;;;1.92;;
18013;SDS011;9132;47.946;10.394;2023-07-30T05:09:33;3.20;;;2.05;;
18013;SDS011;9132;47.946;10.394;2023-07-30T05:11:59;2.45;;;2.15;;
18013;SDS011;9132;47.946;10.394;2023-07-30T05:14:25;3.08;;;2.78;;
18013;SDS011;9132;47.946;10.394;2023-07-30T05:16:52;2.28;;;2.08;;
18013;SDS011;9132;47.946;10.394;2023-07-30T05:19:19;3.03;;;2.58;;
18013;SDS011;9132;47.946;10.394;2023-07-30T05:21:46;2.70;;;2.50;;
18013;SDS011;9132;47.946;10.394;2023-07-30T05:24:12;2.90;;;2.40;;
18013;SDS011;9132;47.946;10.394;2023-07-30T05:26:38;2.60;;;2.13;;
18013;SDS011;9132;47.946;10.394;2023-07-30T05:29:05;2.95;;;2.20;;
18013;SDS011;9132;47.946;10.394;2023-07-30T05:31:31;3.22;;;2.63;;
18013;SDS011;9132;47.946;10.394;2023-07-30T05:33:57;3.35;;;2.45;;
18013;SDS011;9132;47.946;10.394;2023-07-30T05:36:25;2.45;;;2.25;;
18013;SDS011;9132;47.946;10.394;2023-07-30T05:38:51;2.75;;;2.38;;
18013;SDS011;9132;47.946;10.394;2023-07-30T05:41:17;2.40;;;2.20;;
18013;SDS011;9132;47.946;10.394;2023-07-30T05:43:46;2.40;;;2.00;;
18013;SDS011;9132;47.946;10.394;2023-07-30T05:46:12;4.22;;;2.22;;
18013;SDS011;9132;47.946;10.394;2023-07-30T05:48:39;3.70;;;2.08;;
18013;SDS011;9132;47.946;10.394;2023-07-30T05:51:05;2.17;;;1.80;;
18013;SDS011;9132;47.946;10.394;2023-07-30T05:53:33;2.40;;;2.10;;
18013;SDS011;9132;47.946;10.394;2023-07-30T05:55:59;2.45;;;2.20;;
18013;SDS011;9132;47.946;10.394;2023-07-30T05:58:25;3.05;;;2.00;;
18013;SDS011;9132;47.946;10.394;2023-07-30T06:00:51;2.97;;;1.90;;
18013;SDS011;9132;47.946;10.394;2023-07-30T06:03:18;2.92;;;1.77;;
18013;SDS011;9132;47.946;10.394;2023-07-30T06:05:44;2.47;;;2.05;;
18013;SDS011;9132;47.946;10.394;2023-07-30T06:08:10;2.75;;;2.45;;
18013;SDS011;9132;47.946;10.394;2023-07-30T06:10:38;2.42;;;2.10;;
18013;SDS011;9132;47.946;10.394;2023-07-30T06:13:05;2.92;;;2.00;;
18013;SDS011;9132;47.946;10.394;2023-07-30T06:15:32;2.95;;;2.08;;
18013;SDS011;9132;47.946;10.394;2023-07-30T06:17:58;2.92;;;2.00;;
18013;SDS011;9132;47.946;10.394;2023-07-30T06:20:24;2.70;;;2.35;;
18013;SDS011;9132;47.946;10.394;2023-07-30T06:22:51;2.30;;;2.10;;
18013;SDS011;9132;47.946;10.394;2023-07-30T06:25:17;1.77;;;1.65;;
18013;SDS011;9132;47.946;10.394;2023-07-30T06:27:45;2.33;;;1.98;;
18013;SDS011;9132;47.946;10.394;2023-07-30T06:30:11;2.00;;;1.85;;
18013;SDS011;9132;47.946;10.394;2023-07-30T06:32:37;2.25;;;2.05;;
18013;SDS011;9132;47.946;10.394;2023-07-30T06:35:04;2.60;;;1.85;;
18013;SDS011;9132;47.946;10.394;2023-07-30T06:37:31;2.00;;;1.90;;
18013;SDS011;9132;47.946;10.394;2023-07-30T06:39:57;2.05;;;1.85;;
18013;SDS011;9132;47.946;10.394;2023-07-30T06:42:24;3.22;;;2.35;;
18013;SDS011;9132;47.946;10.394;2023-07-30T06:44:51;2.60;;;2.00;;
18013;SDS011;9132;47.946;10.394;2023-07-30T06:47:18;2.45;;;1.88;;
18013;SDS011;9132;47.946;10.394;2023-07-30T06:49:44;1.95;;;1.65;;
18013;SDS011;9132;47.946;10.394;2023-07-30T06:52:10;3.45;;;2.00;;
18013;SDS011;9132;47.946;10.394;2023-07-30T06:54:36;2.28;;;1.98;;
18013;SDS011;9132;47.946;10.394;2023-07-30T06:57:03;2.38;;;1.70;;
18013;SDS011;9132;47.946;10.394;2023-07-30T06:59:29;2.13;;;1.92;;
18013;SDS011;9132;47.946;10.394;2023-07-30T07:01:57;1.85;;;1.75;;
18013;SDS011;9132;47.946;10.394;2023-07-30T07:04:24;2.20;;;2.00;;
18013;SDS011;9132;47.946;10.394;2023-07-30T07:06:51;2.25;;;2.00;;
18013;SDS011;9132;47.946;10.394;2023-07-30T07:09:17;2.40;;;1.98;;
18013;SDS011;9132;47.946;10.394;2023-07-30T07:11:43;2.42;;;2.05;;
18013;SDS011;9132;47.946;10.394;2023-07-30T07:14:10;1.77;;;1.67;;
18013;SDS011;9132;47.946;10.394;2023-07-30T07:16:36;2.25;;;1.92;;
18013;SDS011;9132;47.946;10.394;2023-07-30T07:19:03;1.88;;;1.70;;
18013;SDS011;9132;47.946;10.394;2023-07-30T07:21:30;3.30;;;1.50;;
18013;SDS011;9132;47.946;10.394;2023-07-30T07:23:56;2.65;;;1.65;;
18013;SDS011;9132;47.946;10.394;2023-07-30T07:26:22;1.52;;;1.42;;
18013;SDS011;9132;47.946;10.394;2023-07-30T07:28:48;1.67;;;1.42;;
18013;SDS011;9132;47.946;10.394;2023-07-30T07:31:14;1.60;;;1.50;;
18013;SDS011;9132;47.946;10.394;2023-07-30T07:33:40;2.10;;;1.67;;
18013;SDS011;9132;47.946;10.394;2023-07-30T07:36:08;1.75;;;1.65;;
18013;SDS011;9132;47.946;10.394;2023-07-30T07:38:35;2.75;;;1.70;;
18013;SDS011;9132;47.946;10.394;2023-07-30T07:41:02;1.85;;;1.60;;
18013;SDS011;9132;47.946;10.394;2023-07-30T07:43:28;2.50;;;2.28;;
18013;SDS011;9132;47.946;10.394;2023-07-30T07:45:54;1.60;;;1.50;;
18013;SDS011;9132;47.946;10.394;2023-07-30T07:48:21;2.90;;;1.63;;
18013;SDS011;9132;47.946;10.394;2023-07-30T07:50:47;2.17;;;1.50;;
18013;SDS011;9132;47.946;10.394;2023-07-30T07:53:15;2.05;;;1.70;;
18013;SDS011;9132;47.946;10.394;2023-07-30T07:55:41;1.70;;;1.60;;
18013;SDS011;9132;47.946;10.394;2023-07-30T07:58:07;2.15;;;1.60;;
18013;SDS011;9132;47.946;10.394;2023-07-30T08:00:34;1.65;;;1.45;;
18013;SDS011;9132;47.946;10.394;2023-07-30T08:03:00;1.65;;;1.48;;
18013;SDS011;9132;47.946;10.394;2023-07-30T08:05:26;3.08;;;1.55;;
18013;SDS011;9132;47.946;10.394;2023-07-30T08:07:52;1.60;;;1.50;;
18013;SDS011;9132;47.946;10.394;2023-07-30T08:10:20;2.80;;;1.70;;
18013;SDS011;9132;47.946;10.394;2023-07-30T08:12:47;3.13;;;1.75;;
18013;SDS011;9132;47.946;10.394;2023-07-30T08:15:14;1.98;;;1.60;;
18013;SDS011;9132;47.946;10.394;2023-07-30T08:17:40;1.60;;;1.50;;
18013;SDS011;9132;47.946;10.394;2023-07-30T08:20:07;2.47;;;1.70;;
18013;SDS011;9132;47.946;10.394;2023-07-30T08:22:33;1.90;;;1.60;;
18013;SDS011;9132;47.946;10.394;2023-07-30T08:24:59;1.77;;;1.63;;
18013;SDS011;9132;47.946;10.394;2023-07-30T08:27:27;1.73;;;1.58;;
18013;SDS011;9132;47.946;10.394;2023-07-30T08:29:53;1.58;;;1.48;;
18013;SDS011;9132;47.946;10.394;2023-07-30T08:32:20;1.88;;;1.42;;
18013;SDS011;9132;47.946;10.394;2023-07-30T08:34:46;1.48;;;1.35;;
18013;SDS011;9132;47.946;10.394;2023-07-30T08:37:12;1.95;;;1.30;;
18013;SDS011;9132;47.946;10.394;2023-07-30T08:39:39;1.65;;;1.55;;
18013;SDS011;9132;47.946;10.394;2023-07-30T08:42:05;2.28;;;1.50;;
18013;SDS011;9132;47.946;10.394;2023-07-30T08:44:33;3.88;;;1.70;;
18013;SDS011;9132;47.946;10.394;2023-07-30T08:46:59;2.03;;;1.45;;
18013;SDS011;9132;47.946;10.394;2023-07-30T08:49:25;1.88;;;1.40;;
18013;SDS011;9132;47.946;10.394;2023-07-30T08:51:53;1.55;;;1.40;;
18013;SDS011;9132;47.946;10.394;2023-07-30T08:54:20;3.13;;;1.65;;
18013;SDS011;9132;47.946;10.394;2023-07-30T08:56:46;1.67;;;1.58;;
18013;SDS011;9132;47.946;10.394;2023-07-30T08:59:13;2.45;;;1.50;;
18013;SDS011;9132;47.946;10.394;2023-07-30T09:01:42;1.80;;;1.50;;
18013;SDS011;9132;47.946;10.394;2023-07-30T09:04:10;1.52;;;1.42;;
18013;SDS011;9132;47.946;10.394;2023-07-30T09:06:36;1.80;;;1.70;;
18013;SDS011;9132;47.946;10.394;2023-07-30T09:09:03;1.88;;;1.50;;
18013;SDS011;9132;47.946;10.394;2023-07-30T09:11:30;1.65;;;1.48;;
18013;SDS011;9132;47.946;10.394;2023-07-30T09:13:57;1.58;;;1.30;;
18013;SDS011;9132;47.946;10.394;2023-07-30T09:16:24;1.50;;;1.40;;
18013;SDS011;9132;47.946;10.394;2023-07-30T09:18:52;1.65;;;1.40;;
18013;SDS011;9132;47.946;10.394;2023-07-30T09:21:19;1.50;;;1.35;;
18013;SDS011;9132;47.946;10.394;2023-07-30T09:23:46;1.85;;;1.60;;
18013;SDS011;9132;47.946;10.394;2023-07-30T09:26:13;2.03;;;1.40;;
18013;SDS011;9132;47.946;10.394;2023-07-30T09:28:39;2.03;;;1.30;;
18013;SDS011;9132;47.946;10.394;2023-07-30T09:31:06;1.17;;;1.10;;
18013;SDS011;9132;47.946;10.394;2023-07-30T09:33:33;1.65;;;1.30;;
18013;SDS011;9132;47.946;10.394;2023-07-30T09:36:02;1.38;;;1.27;;
18013;SDS011;9132;47.946;10.394;2023-07-30T09:38:29;1.30;;;1.20;;
18013;SDS011;9132;47.946;10.394;2023-07-30T09:41:00;2.88;;;1.15;;
18013;SDS011;9132;47.946;10.394;2023-07-30T09:43:27;1.40;;;1.30;;
18013;SDS011;9132;47.946;10.394;2023-07-30T09:45:54;1.40;;;1.30;;
18013;SDS011;9132;47.946;10.394;2023-07-30T09:48:26;1.40;;;1.30;;
18013;SDS011;9132;47.946;10.394;2023-07-30T09:50:53;1.42;;;1.33;;
18013;SDS011;9132;47.946;10.394;2023-07-30T09:53:21;1.38;;;1.25;;
18013;SDS011;9132;47.946;10.394;2023-07-30T09:55:47;2.67;;;1.30;;
18013;SDS011;9132;47.946;10.394;2023-07-30T09:58:13;2.92;;;1.20;;
18013;SDS011;9132;47.946;10.394;2023-07-30T10:00:40;1.45;;;1.35;;
18013;SDS011;9132;47.946;10.394;2023-07-30T10:03:06;1.33;;;1.08;;
18013;SDS011;9132;47.946;10.394;2023-07-30T10:05:33;1.23;;;1.13;;
18013;SDS011;9132;47.946;10.394;2023-07-30T10:08:02;1.30;;;1.20;;
18013;SDS011;9132;47.946;10.394;2023-07-30T10:10:31;1.35;;;1.25;;
18013;SDS011;9132;47.946;10.394;2023-07-30T10:12:58;1.95;;;1.30;;
18013;SDS011;9132;47.946;10.394;2023-07-30T10:15:26;3.03;;;1.20;;
18013;SDS011;9132;47.946;10.394;2023-07-30T10:17:52;1.38;;;1.20;;
18013;SDS011;9132;47.946;10.394;2023-07-30T10:20:22;1.48;;;1.10;;
18013;SDS011;9132;47.946;10.394;2023-07-30T10:22:50;2.42;;;1.20;;
18013;SDS011;9132;47.946;10.394;2023-07-30T10:25:17;1.80;;;1.10;;
18013;SDS011;9132;47.946;10.394;2023-07-30T10:27:49;1.33;;;1.05;;
18013;SDS011;9132;47.946;10.394;2023-07-30T10:30:16;2.10;;;1.17;;
18013;SDS011;9132;47.946;10.394;2023-07-30T10:32:57;1.75;;;1.00;;
18013;SDS011;9132;47.946;10.394;2023-07-30T10:35:37;1.83;;;1.10;;
18013;SDS011;9132;47.946;10.394;2023-07-30T10:41:03;3.17;;;1.40;;
18013;SDS011;9132;47.946;10.394;2023-07-30T10:43:32;1.15;;;1.00;;
18013;SDS011;9132;47.946;10.394;2023-07-30T10:46:00;1.13;;;1.00;;
18013;SDS011;9132;47.946;10.394;2023-07-30T10:48:29;1.48;;;1.15;;
18013;SDS011;9132;47.946;10.394;2023-07-30T10:50:56;1.30;;;1.20;;
18013;SDS011;9132;47.946;10.394;2023-07-30T10:53:22;1.10;;;0.90;;
18013;SDS011;9132;47.946;10.394;2023-07-30T10:55:48;1.50;;;1.10;;
18013;SDS011;9132;47.946;10.394;2023-07-30T10:58:15;2.72;;;1.40;;
18013;SDS011;9132;47.946;10.394;2023-07-30T11:00:42;1.50;;;1.40;;
18013;SDS011;9132;47.946;10.394;2023-07-30T11:03:09;1.73;;;1.10;;
18013;SDS011;9132;47.946;10.394;2023-07-30T11:05:37;1.23;;;1.10;;
18013;SDS011;9132;47.946;10.394;2023-07-30T11:08:03;2.70;;;1.00;;
18013;SDS011;9132;47.946;10.394;2023-07-30T11:10:30;1.67;;;1.42;;
18013;SDS011;9132;47.946;10.394;2023-07-30T11:12:57;1.42;;;1.30;;
18013;SDS011;9132;47.946;10.394;2023-07-30T11:15:23;1.30;;;1.20;;
18013;SDS011;9132;47.946;10.394;2023-07-30T11:17:52;1.25;;;1.15;;
18013;SDS011;9132;47.946;10.394;2023-07-30T11:20:22;1.33;;;1.23;;
18013;SDS011;9132;47.946;10.394;2023-07-30T11:22:48;1.67;;;1.45;;
18013;SDS011;9132;47.946;10.394;2023-07-30T11:25:18;1.98;;;1.20;;
18013;SDS011;9132;47.946;10.394;2023-07-30T11:27:45;2.60;;;1.48;;
18013;SDS011;9132;47.946;10.394;2023-07-30T11:30:11;4.00;;;1.40;;
18013;SDS011;9132;47.946;10.394;2023-07-30T11:32:37;1.40;;;1.30;;
18013;SDS011;9132;47.946;10.394;2023-07-30T11:35:05;1.45;;;1.35;;
18013;SDS011;9132;47.946;10.394;2023-07-30T11:37:32;1.80;;;1.20;;
18013;SDS011;9132;47.946;10.394;2023-07-30T11:39:59;1.30;;;1.20;;
18013;SDS011;9132;47.946;10.394;2023-07-30T11:42:25;1.13;;;1.02;;
18013;SDS011;9132;47.946;10.394;2023-07-30T11:44:55;2.20;;;1.30;;
18013;SDS011;9132;47.946;10.394;2023-07-30T11:47:21;1.73;;;1.35;;
18013;SDS011;9132;47.946;10.394;2023-07-30T11:49:54;1.83;;;1.40;;
18013;SDS011;9132;47.946;10.394;2023-07-30T11:52:22;1.98;;;1.27;;
18013;SDS011;9132;47.946;10.394;2023-07-30T11:54:48;1.40;;;1.27;;
18013;SDS011;9132;47.946;10.394;2023-07-30T11:57:32;1.55;;;1.13;;
18013;SDS011;9132;47.946;10.394;2023-07-30T11:59:58;2.85;;;1.40;;
18013;SDS011;9132;47.946;10.394;2023-07-30T12:02:24;1.70;;;1.33;;
18013;SDS011;9132;47.946;10.394;2023-07-30T12:04:51;1.17;;;1.08;;
18013;SDS011;9132;47.946;10.394;2023-07-30T12:07:22;1.40;;;1.30;;
18013;SDS011;9132;47.946;10.394;2023-07-30T12:09:49;1.40;;;1.30;;
18013;SDS011;9132;47.946;10.394;2023-07-30T12:12:16;1.80;;;1.40;;
18013;SDS011;9132;47.946;10.394;2023-07-30T12:14:43;1.33;;;1.23;;
18013;SDS011;9132;47.946;10.394;2023-07-30T12:17:09;1.40;;;1.30;;
18013;SDS011;9132;47.946;10.394;2023-07-30T12:19:35;1.70;;;1.33;;
18013;SDS011;9132;47.946;10.394;2023-07-30T12:22:02;1.40;;;1.30;;
18013;SDS011;9132;47.946;10.394;2023-07-30T12:24:30;2.15;;;1.30;;
18013;SDS011;9132;47.946;10.394;2023-07-30T12:26:56;1.63;;;1.30;;
18013;SDS011;9132;47.946;10.394;2023-07-30T12:29:22;1.92;;;1.23;;
18013;SDS011;9132;47.946;10.394;2023-07-30T12:31:49;1.75;;;1.48;;
18013;SDS011;9132;47.946;10.394;2023-07-30T12:34:18;1.90;;;1.48;;
18013;SDS011;9132;47.946;10.394;2023-07-30T12:36:44;3.40;;;1.42;;
18013;SDS011;9132;47.946;10.394;2023-07-30T12:39:11;2.08;;;1.70;;
18013;SDS011;9132;47.946;10.394;2023-07-30T12:41:38;2.58;;;1.88;;
18013;SDS011;9132;47.946;10.394;2023-07-30T12:44:05;1.75;;;1.38;;
18013;SDS011;9132;47.946;10.394;2023-07-30T12:46:31;1.80;;;1.70;;
18013;SDS011;9132;47.946;10.394;2023-07-30T12:48:57;1.98;;;1.40;;
18013;SDS011;9132;47.946;10.394;2023-07-30T12:51:27;1.73;;;1.40;;
18013;SDS011;9132;47.946;10.394;2023-07-30T12:53:54;1.40;;;1.30;;
18013;SDS011;9132;47.946;10.394;2023-07-30T12:56:20;1.98;;;1.50;;
18013;SDS011;9132;47.946;10.394;2023-07-30T12:58:48;1.30;;;1.20;;
18013;SDS011;9132;47.946;10.394;2023-07-30T13:01:14;1.58;;;1.48;;
18013;SDS011;9132;47.946;10.394;2023-07-30T13:03:41;2.00;;;1.40;;
18013;SDS011;9132;47.946;10.394;2023-07-30T13:06:10;3.03;;;1.55;;
18013;SDS011;9132;47.946;10.394;2023-07-30T13:08:36;1.70;;;1.50;;
18013;SDS011;9132;47.946;10.394;2023-07-30T13:11:02;1.23;;;1.13;;
18013;SDS011;9132;47.946;10.394;2023-07-30T13:13:28;2.20;;;1.58;;
18013;SDS011;9132;47.946;10.394;2023-07-30T13:15:56;1.45;;;1.35;;
18013;SDS011;9132;47.946;10.394;2023-07-30T13:18:23;2.55;;;1.52;;
18013;SDS011;9132;47.946;10.394;2023-07-30T13:20:49;3.72;;;1.58;;
18013;SDS011;9132;47.946;10.394;2023-07-30T13:23:15;2.72;;;1.40;;
18013;SDS011;9132;47.946;10.394;2023-07-30T13:25:42;1.63;;;1.35;;
18013;SDS011;9132;47.946;10.394;2023-07-30T13:28:08;1.60;;;1.40;;
18013;SDS011;9132;47.946;10.394;2023-07-30T13:30:34;2.95;;;1.40;;
18013;SDS011;9132;47.946;10.394;2023-07-30T13:33:02;1.50;;;1.40;;
18013;SDS011;9132;47.946;10.394;2023-07-30T13:35:28;1.33;;;1.23;;
18013;SDS011;9132;47.946;10.394;2023-07-30T13:37:55;1.98;;;1.77;;
18013;SDS011;9132;47.946;10.394;2023-07-30T13:40:21;2.83;;;1.33;;
18013;SDS011;9132;47.946;10.394;2023-07-30T13:42:48;2.38;;;1.60;;
18013;SDS011;9132;47.946;10.394;2023-07-30T13:45:14;1.90;;;1.60;;
18013;SDS011;9132;47.946;10.394;2023-07-30T13:47:40;1.38;;;1.27;;
18013;SDS011;9132;47.946;10.394;2023-07-30T13:50:08;1.60;;;1.50;;
18013;SDS011;9132;47.946;10.394;2023-07-30T13:52:35;1.55;;;1.40;;
18013;SDS011;9132;47.946;10.394;2023-07-30T13:55:02;1.50;;;1.20;;
18013;SDS011;9132;47.946;10.394;2023-07-30T13:57:28;1.58;;;1.45;;
18013;SDS011;9132;47.946;10.394;2023-07-30T13:59:54;4.18;;;1.52;;
18013;SDS011;9132;47.946;10.394;2023-07-30T14:02:21;2.58;;;1.40;;
18013;SDS011;9132;47.946;10.394;2023-07-30T14:04:47;1.50;;;1.40;;
18013;SDS011;9132;47.946;10.394;2023-07-30T14:07:14;2.38;;;1.40;;
18013;SDS011;9132;47.946;10.394;2023-07-30T14:09:41;1.30;;;1.20;;
18013;SDS011;9132;47.946;10.394;2023-07-30T14:12:08;1.85;;;1.42;;
18013;SDS011;9132;47.946;10.394;2023-07-30T14:14:34;1.55;;;1.45;;
18013;SDS011;9132;47.946;10.394;2023-07-30T14:17:01;1.73;;;1.40;;
18013;SDS011;9132;47.946;10.394;2023-07-30T14:19:31;2.78;;;1.52;;
18013;SDS011;9132;47.946;10.394;2023-07-30T14:21:58;1.67;;;1.48;;
18013;SDS011;9132;47.946;10.394;2023-07-30T14:24:25;1.92;;;1.67;;
18013;SDS011;9132;47.946;10.394;2023-07-30T14:26:52;2.17;;;1.45;;
18013;SDS011;9132;47.946;10.394;2023-07-30T14:29:18;2.40;;;1.63;;
18013;SDS011;9132;47.946;10.394;2023-07-30T14:31:44;2.08;;;1.45;;
18013;SDS011;9132;47.946;10.394;2023-07-30T14:34:10;2.05;;;1.30;;
18013;SDS011;9132;47.946;10.394;2023-07-30T14:36:37;2.50;;;1.80;;
18013;SDS011;9132;47.946;10.394;2023-07-30T14:39:03;1.63;;;1.52;;
18013;SDS011;9132;47.946;10.394;2023-07-30T14:41:31;1.98;;;1.70;;
18013;SDS011;9132;47.946;10.394;2023-07-30T14:43:57;2.47;;;1.40;;
18013;SDS011;9132;47.946;10.394;2023-07-30T14:46:23;1.88;;;1.33;;
18013;SDS011;9132;47.946;10.394;2023-07-30T14:48:50;1.63;;;1.45;;
18013;SDS011;9132;47.946;10.394;2023-07-30T14:51:16;5.60;;;3.22;;
18013;SDS011;9132;47.946;10.394;2023-07-30T14:53:43;4.00;;;3.60;;